Time;durP1;ratioP1;P1;durP2;ratioP2;P2;SDS_P1;SDS_P2;PMS_P1;PMS_P2;Temp;Humidity;BMP_temperature;BMP_pressure;BME280_temperature;BME280_humidity;BME280_pressure;Samples;Min_cycle;Max_cycle;Signal;HPM_P1;HPM_P2
2023/08/20 00:01:01;;;;;;;9.10;8.20;;;21.50;99.90;;;;;;5008843;28;20196;-79
2023/08/20 00:03:28;;;;;;;9.63;8.15;;;21.50;99.90;;;;;;5033570;28;20579;-79
2023/08/20 00:05:56;;;;;;;8.27;7.43;;;21.30;99.90;;;;;;5028364;28;20191;-79
2023/08/20 00:08:24;;;;;;;8.05;7.13;;;21.20;99.90;;;;;;5017025;28;20191;-79
2023/08/20 00:10:51;;;;;;;7.70;6.88;;;21.20;99.90;;;;;;5014300;28;20707;-79
2023/08/20 00:13:19;;;;;;;8.30;7.47;;;21.10;99.90;;;;;;5030400;28;20549;-79
2023/08/20 00:15:48;;;;;;;9.10;7.47;;;21.10;99.90;;;;;;5028858;28;20191;-79
2023/08/20 00:18:16;;;;;;;9.60;7.15;;;21.00;99.90;;;;;;5017290;28;20558;-79
2023/08/20 00:20:59;;;;;;;6.97;6.28;;;20.80;99.90;;;;;;5015763;28;20218;-79
2023/08/20 00:23:27;;;;;;;7.80;6.65;;;20.80;99.90;;;;;;5032120;28;20210;-79
2023/08/20 00:25:55;;;;;;;8.10;7.25;;;21.00;99.90;;;;;;5015790;28;20202;-79
2023/08/20 00:28:22;;;;;;;10.57;7.38;;;21.20;99.90;;;;;;5014775;28;20210;-79
2023/08/20 00:30:52;;;;;;;7.68;6.93;;;21.20;99.90;;;;;;5015731;28;20218;-79
2023/08/20 00:33:19;;;;;;;7.63;6.72;;;21.20;99.90;;;;;;5015770;28;20222;-79
2023/08/20 00:35:47;;;;;;;9.48;7.63;;;21.10;99.90;;;;;;5017831;28;20214;-79
2023/08/20 00:38:15;;;;;;;7.82;7.13;;;21.10;99.90;;;;;;5018473;28;20199;-79
2023/08/20 00:40:42;;;;;;;7.25;6.60;;;21.30;99.90;;;;;;5025608;28;20226;-79
2023/08/20 00:43:11;;;;;;;7.88;7.07;;;21.40;99.90;;;;;;5032618;28;20559;-79
2023/08/20 00:45:38;;;;;;;8.68;6.90;;;21.30;99.90;;;;;;5033078;28;20568;-79
2023/08/20 00:48:08;;;;;;;10.40;7.55;;;21.40;99.90;;;;;;5020146;28;20191;-79
2023/08/20 00:50:35;;;;;;;8.10;7.25;;;21.30;99.90;;;;;;5035670;28;20555;-79
2023/08/20 00:53:03;;;;;;;8.65;7.85;;;21.30;99.90;;;;;;5019176;28;20227;-79
2023/08/20 00:55:30;;;;;;;8.23;6.90;;;21.30;99.90;;;;;;5017964;28;20215;-79
2023/08/20 00:57:58;;;;;;;9.98;7.60;;;21.30;99.90;;;;;;5017313;28;20215;-79
2023/08/20 01:00:26;;;;;;;7.85;7.05;;;21.40;99.90;;;;;;5011910;28;20195;-79
2023/08/20 01:02:55;;;;;;;8.07;7.28;;;21.40;99.90;;;;;;5018509;28;20230;-79
2023/08/20 01:05:25;;;;;;;8.63;7.30;;;21.40;99.90;;;;;;5015603;28;20203;-79
2023/08/20 01:08:03;;;;;;;10.00;7.78;;;21.40;99.90;;;;;;5018967;28;20202;-79
2023/08/20 01:10:39;;;;;;;9.00;8.10;;;21.30;99.90;;;;;;5024289;28;20199;-79
2023/08/20 01:13:08;;;;;;;9.13;8.05;;;21.30;99.90;;;;;;5017457;28;20222;-79
2023/08/20 01:15:35;;;;;;;13.77;9.32;;;21.30;99.90;;;;;;5033572;28;20211;-78
2023/08/20 01:18:03;;;;;;;9.82;8.43;;;21.40;99.90;;;;;;5039148;28;20223;-79
2023/08/20 01:20:42;;;;;;;12.10;10.27;;;21.40;99.90;;;;;;5019328;28;20291;-79
2023/08/20 01:23:45;;;;;;;8.93;8.00;;;21.40;99.90;;;;;;5018596;28;20584;-79
2023/08/20 01:26:34;;;;;;;11.57;10.40;;;21.40;99.90;;;;;;5023829;28;20209;-79
2023/08/20 01:29:03;;;;;;;11.52;9.98;;;21.40;99.90;;;;;;5023479;28;20214;-79
2023/08/20 01:31:32;;;;;;;9.75;8.75;;;21.40;99.90;;;;;;5018665;28;20572;-79
2023/08/20 01:34:00;;;;;;;11.05;9.95;;;21.50;99.90;;;;;;5029779;28;20223;-79
2023/08/20 01:36:28;;;;;;;11.32;10.13;;;21.40;99.90;;;;;;5018733;28;20202;-79
2023/08/20 01:38:56;;;;;;;11.48;10.20;;;21.40;99.90;;;;;;5019874;28;20206;-79
2023/08/20 01:41:24;;;;;;;11.57;9.77;;;21.40;99.90;;;;;;5018691;28;20204;-79
2023/08/20 01:43:52;;;;;;;11.20;10.02;;;21.40;99.90;;;;;;5033028;28;20222;-79
2023/08/20 01:46:20;;;;;;;12.20;10.40;;;21.40;99.90;;;;;;5032511;28;20195;-79
2023/08/20 01:48:51;;;;;;;11.30;10.15;;;21.60;99.90;;;;;;5018510;28;20214;-79
2023/08/20 01:51:19;;;;;;;13.52;10.23;;;21.80;99.90;;;;;;5034034;28;20198;-79
2023/08/20 01:53:46;;;;;;;12.07;10.40;;;22.00;99.90;;;;;;5032639;28;20227;-79
2023/08/20 01:56:14;;;;;;;13.93;11.63;;;22.00;99.90;;;;;;5018149;28;20205;-79
2023/08/20 01:58:42;;;;;;;16.33;13.07;;;21.90;99.90;;;;;;5016079;28;20242;-79
2023/08/20 02:01:09;;;;;;;14.45;10.27;;;21.60;99.90;;;;;;5032360;28;20196;-79
2023/08/20 02:03:38;;;;;;;13.00;11.60;;;21.60;99.90;;;;;;5035238;28;20218;-79
2023/08/20 02:06:06;;;;;;;13.32;9.93;;;21.70;99.90;;;;;;5029620;28;20195;-79
2023/08/20 02:08:33;;;;;;;12.95;10.63;;;21.70;99.90;;;;;;5012244;28;20557;-79
2023/08/20 02:11:02;;;;;;;14.65;9.60;;;21.50;99.90;;;;;;5017402;28;20210;-80
2023/08/20 02:13:30;;;;;;;13.07;9.98;;;21.50;99.90;;;;;;5017598;28;20215;-79
2023/08/20 02:16:02;;;;;;;12.13;9.23;;;21.50;99.90;;;;;;5035114;28;20206;-79
2023/08/20 02:18:30;;;;;;;14.70;11.05;;;21.50;99.90;;;;;;5020003;28;20588;-79
2023/08/20 02:20:58;;;;;;;13.63;11.15;;;21.40;99.90;;;;;;5017524;28;20559;-79
2023/08/20 02:23:26;;;;;;;15.20;10.50;;;21.30;99.90;;;;;;5027978;28;20692;-79
2023/08/20 02:25:53;;;;;;;12.63;11.10;;;21.30;99.90;;;;;;5013298;28;20207;-79
2023/08/20 02:28:22;;;;;;;11.00;8.85;;;21.20;99.90;;;;;;5023810;28;20195;-79
2023/08/20 02:30:49;;;;;;;10.70;9.57;;;21.40;99.90;;;;;;5016723;28;20199;-79
2023/08/20 02:33:17;;;;;;;11.25;9.82;;;21.50;99.90;;;;;;5033919;28;20214;-79
2023/08/20 02:35:44;;;;;;;10.57;9.18;;;21.70;99.90;;;;;;5017808;28;20576;-79
2023/08/20 02:38:14;;;;;;;13.93;10.63;;;21.80;99.90;;;;;;5017435;28;20219;-79
2023/08/20 02:40:42;;;;;;;13.00;10.57;;;21.90;99.90;;;;;;5011602;28;20318;-79
2023/08/20 02:43:09;;;;;;;12.88;11.38;;;21.90;99.90;;;;;;5013820;28;20254;-79
2023/08/20 02:45:48;;;;;;;14.38;12.07;;;21.70;99.90;;;;;;5013788;28;20206;-79
2023/08/20 02:48:16;;;;;;;12.48;10.70;;;21.50;99.90;;;;;;5031405;28;20219;-79
2023/08/20 02:50:43;;;;;;;11.75;10.55;;;21.80;99.90;;;;;;5013167;28;20208;-79
2023/08/20 02:53:10;;;;;;;15.95;11.32;;;21.80;99.90;;;;;;5030971;28;20578;-79
2023/08/20 02:55:39;;;;;;;13.13;11.82;;;21.70;99.90;;;;;;5013258;28;20199;-78
2023/08/20 02:58:08;;;;;;;12.85;11.45;;;21.70;99.90;;;;;;5023252;28;20231;-79
2023/08/20 03:00:37;;;;;;;12.45;10.07;;;21.60;99.90;;;;;;5015513;28;20199;-79
2023/08/20 03:03:07;;;;;;;11.05;9.90;;;21.70;99.90;;;;;;5030950;28;20219;-79
2023/08/20 03:05:35;;;;;;;13.52;12.25;;;21.60;99.90;;;;;;5017588;28;20202;-79
2023/08/20 03:08:04;;;;;;;15.38;13.60;;;21.60;99.90;;;;;;5031560;28;20199;-79
2023/08/20 03:10:33;;;;;;;14.18;12.63;;;21.50;99.90;;;;;;5014550;28;20195;-79
2023/08/20 03:13:02;;;;;;;14.65;12.70;;;21.10;99.90;;;;;;5023779;28;20234;-80
2023/08/20 03:15:30;;;;;;;16.13;14.32;;;21.00;99.90;;;;;;5039785;28;20187;-81
2023/08/20 03:17:58;;;;;;;11.38;10.25;;;20.80;99.90;;;;;;5034511;28;20214;-81
2023/08/20 03:20:28;;;;;;;13.23;11.70;;;21.10;99.90;;;;;;5017354;28;20198;-81
2023/08/20 03:22:55;;;;;;;14.38;12.77;;;21.10;99.90;;;;;;5036878;28;20225;-81
2023/08/20 03:25:23;;;;;;;14.38;12.98;;;21.00;99.90;;;;;;5018949;28;20207;-81
2023/08/20 03:27:51;;;;;;;14.80;13.43;;;21.00;99.90;;;;;;5025408;28;20700;-81
2023/08/20 03:30:20;;;;;;;15.00;11.98;;;20.80;99.90;;;;;;5013235;28;20191;-81
2023/08/20 03:32:47;;;;;;;13.90;12.57;;;20.70;99.90;;;;;;5021585;28;20223;-81
2023/08/20 03:35:15;;;;;;;14.05;12.63;;;20.60;99.90;;;;;;5010664;28;20206;-81
2023/08/20 03:37:43;;;;;;;13.07;11.57;;;20.70;99.90;;;;;;5024101;28;20218;-81
2023/08/20 03:40:12;;;;;;;15.07;10.90;;;20.80;99.90;;;;;;5016982;28;20195;-81
2023/08/20 03:42:39;;;;;;;10.73;9.73;;;21.10;99.90;;;;;;5014521;28;20195;-81
2023/08/20 03:45:08;;;;;;;12.05;10.90;;;21.40;99.90;;;;;;5009664;28;20204;-81
2023/08/20 03:47:37;;;;;;;12.55;11.27;;;21.60;99.90;;;;;;5027219;28;20202;-81
2023/08/20 03:50:05;;;;;;;17.27;13.23;;;21.70;99.90;;;;;;5017104;28;20199;-81
2023/08/20 03:52:33;;;;;;;16.33;14.73;;;21.70;99.90;;;;;;5013270;28;20214;-81
2023/08/20 03:55:00;;;;;;;15.95;13.63;;;21.60;99.90;;;;;;5026284;28;20211;-81
2023/08/20 03:57:28;;;;;;;19.23;14.93;;;21.10;99.90;;;;;;5028269;28;20576;-81
2023/08/20 03:59:55;;;;;;;16.95;15.15;;;20.90;99.90;;;;;;5024491;28;20202;-81
2023/08/20 04:02:25;;;;;;;20.92;15.13;;;20.80;99.90;;;;;;5017758;28;20206;-82
2023/08/20 04:04:53;;;;;;;16.85;15.05;;;20.80;99.90;;;;;;5016815;28;20207;-82
2023/08/20 04:07:21;;;;;;;19.00;15.93;;;20.70;99.90;;;;;;5018823;28;20198;-82
2023/08/20 04:09:48;;;;;;;16.10;14.07;;;20.70;99.90;;;;;;5013223;28;20207;-82
2023/08/20 04:12:16;;;;;;;13.77;11.43;;;21.00;99.90;;;;;;5014471;28;20696;-82
2023/08/20 04:14:44;;;;;;;13.85;12.32;;;21.40;99.90;;;;;;5011135;28;20258;-79
2023/08/20 04:17:11;;;;;;;25.48;18.67;;;21.60;99.90;;;;;;5019308;28;20195;-79
2023/08/20 04:19:38;;;;;;;29.33;19.13;;;21.30;99.90;;;;;;5030186;28;20218;-79
2023/08/20 04:22:07;;;;;;;32.55;21.40;;;21.10;99.90;;;;;;5012293;28;20210;-79
2023/08/20 04:24:35;;;;;;;30.13;19.98;;;21.10;99.90;;;;;;5017151;28;20219;-79
2023/08/20 04:27:02;;;;;;;24.95;18.33;;;21.10;99.90;;;;;;5027784;28;20214;-79
2023/08/20 04:29:30;;;;;;;23.90;17.83;;;21.10;99.90;;;;;;5026164;28;20184;-79
2023/08/20 04:31:58;;;;;;;21.33;16.45;;;21.40;99.90;;;;;;5011956;28;20203;-79
2023/08/20 04:34:25;;;;;;;38.85;25.85;;;21.50;99.90;;;;;;5019483;28;20218;-79
2023/08/20 04:36:54;;;;;;;33.92;23.35;;;21.20;99.90;;;;;;5018791;28;20560;-79
2023/08/20 04:39:23;;;;;;;29.13;20.33;;;21.20;99.90;;;;;;5030568;28;20203;-79
2023/08/20 04:42:00;;;;;;;27.85;20.77;;;21.40;99.90;;;;;;5019420;28;20194;-79
2023/08/20 04:44:28;;;;;;;41.78;24.70;;;21.50;99.90;;;;;;5014409;28;20222;-79
2023/08/20 04:46:57;;;;;;;43.47;29.05;;;21.60;99.90;;;;;;5017265;28;20191;-79
2023/08/20 04:49:28;;;;;;;46.30;29.13;;;21.60;99.90;;;;;;5011875;28;20210;-80
2023/08/20 04:51:55;;;;;;;33.88;22.08;;;21.10;99.90;;;;;;5018682;28;20203;-79
2023/08/20 04:54:24;;;;;;;47.45;29.20;;;21.20;99.90;;;;;;5018282;28;20230;-79
2023/08/20 04:56:52;;;;;;;58.75;33.40;;;21.20;99.90;;;;;;5014272;28;20192;-79
2023/08/20 04:59:19;;;;;;;58.10;33.80;;;21.20;99.90;;;;;;5022492;28;20672;-79
2023/08/20 05:02:10;;;;;;;47.92;26.77;;;20.90;99.90;;;;;;5031234;28;20199;-80
2023/08/20 05:04:42;;;;;;;51.47;32.03;;;21.00;99.90;;;;;;5012646;28;20220;-79
2023/08/20 05:07:09;;;;;;;49.58;31.80;;;21.00;99.90;;;;;;5039886;28;20195;-80
2023/08/20 05:09:38;;;;;;;57.83;34.58;;;21.00;99.90;;;;;;5018149;28;20207;-79
2023/08/20 05:12:08;;;;;;;42.33;28.77;;;21.00;99.90;;;;;;5021339;28;20195;-79
2023/08/20 05:14:36;;;;;;;48.20;32.38;;;21.10;99.90;;;;;;5019321;28;20219;-79
2023/08/20 05:17:04;;;;;;;49.25;33.45;;;21.00;99.90;;;;;;5019789;28;20578;-79
2023/08/20 05:19:31;;;;;;;51.70;32.72;;;21.00;99.90;;;;;;5024079;28;20211;-79
2023/08/20 05:21:59;;;;;;;49.45;32.55;;;21.00;99.90;;;;;;5012058;28;20198;-79
2023/08/20 05:24:29;;;;;;;43.53;31.13;;;21.00;99.90;;;;;;5018919;28;20211;-79
2023/08/20 05:27:10;;;;;;;47.80;33.10;;;21.10;99.90;;;;;;5020406;28;20200;-79
2023/08/20 05:29:38;;;;;;;51.78;33.03;;;21.20;99.90;;;;;;5019498;28;20195;-79
2023/08/20 05:32:06;;;;;;;48.13;33.58;;;21.00;99.90;;;;;;5020124;28;20206;-79
2023/08/20 05:34:38;;;;;;;47.47;33.17;;;21.00;99.90;;;;;;5018430;28;20216;-79
2023/08/20 05:37:05;;;;;;;44.90;33.28;;;21.10;99.90;;;;;;5048239;28;20209;-79
2023/08/20 05:39:38;;;;;;;53.33;33.42;;;21.20;99.90;;;;;;5035786;28;20214;-79
2023/08/20 05:42:05;;;;;;;39.83;29.40;;;21.10;99.90;;;;;;5037439;28;20198;-82
2023/08/20 05:44:34;;;;;;;39.42;28.42;;;21.30;99.90;;;;;;5017891;28;20298;-82
2023/08/20 05:47:05;;;;;;;42.13;31.25;;;21.50;99.90;;;;;;5025121;28;20202;-80
2023/08/20 05:49:32;;;;;;;44.67;33.85;;;21.50;99.90;;;;;;5019684;28;20695;-80
2023/08/20 05:52:00;;;;;;;43.92;33.35;;;21.50;99.90;;;;;;5036264;28;20198;-80
2023/08/20 05:54:32;;;;;;;41.47;31.55;;;21.50;99.90;;;;;;5008666;28;20218;-79
2023/08/20 05:56:59;;;;;;;36.00;28.13;;;21.60;99.90;;;;;;5015108;28;20233;-79
2023/08/20 06:00:10;;;;;;;35.47;26.77;;;21.80;99.90;;;;;;5012931;28;20211;-81
2023/08/20 06:03:05;;;;;;;32.33;24.15;;;21.90;99.90;;;;;;4965378;28;20227;-79
2023/08/20 06:05:35;;;;;;;42.38;31.48;;;22.00;99.90;;;;;;5032400;28;20210;-79
2023/08/20 06:08:02;;;;;;;42.95;31.75;;;22.00;99.90;;;;;;5014232;28;20207;-79
2023/08/20 06:10:30;;;;;;;40.45;31.25;;;21.70;99.90;;;;;;5015781;28;20202;-80
2023/08/20 06:12:57;;;;;;;51.10;35.28;;;21.50;99.90;;;;;;5028781;28;20223;-80
2023/08/20 06:15:25;;;;;;;43.03;32.58;;;21.50;99.90;;;;;;5027712;28;20195;-80
2023/08/20 06:17:52;;;;;;;40.72;32.03;;;21.40;99.90;;;;;;5014208;28;20191;-80
2023/08/20 06:20:58;;;;;;;41.33;31.55;;;21.30;99.90;;;;;;5027664;28;20591;-80
2023/08/20 06:23:26;;;;;;;41.33;31.20;;;21.30;99.90;;;;;;5007525;28;20227;-79
2023/08/20 06:25:53;;;;;;;41.03;31.73;;;21.30;99.90;;;;;;5024238;28;20203;-80
2023/08/20 06:28:21;;;;;;;42.33;32.13;;;21.20;99.90;;;;;;5030011;28;20215;-79
2023/08/20 06:30:48;;;;;;;34.38;26.02;;;21.30;99.90;;;;;;5014113;28;20199;-79
2023/08/20 06:33:16;;;;;;;35.15;27.02;;;21.50;99.90;;;;;;5031563;28;20223;-79
2023/08/20 06:35:43;;;;;;;41.83;32.80;;;21.60;99.90;;;;;;5014527;28;20211;-79
2023/08/20 06:38:19;;;;;;;42.05;31.75;;;21.50;99.90;;;;;;5017963;28;20214;-80
2023/08/20 06:40:47;;;;;;;42.33;32.28;;;21.50;99.90;;;;;;5006767;28;20218;-79
2023/08/20 06:43:15;;;;;;;41.45;29.65;;;21.40;99.90;;;;;;5012696;28;20230;-78
2023/08/20 06:45:42;;;;;;;42.05;30.90;;;21.60;99.90;;;;;;5030838;28;20191;-79
2023/08/20 06:48:10;;;;;;;45.45;32.25;;;21.80;99.90;;;;;;5023084;28;20210;-79
2023/08/20 06:50:37;;;;;;;36.83;27.23;;;21.80;99.90;;;;;;5008636;28;20641;-79
2023/08/20 06:53:05;;;;;;;35.92;29.42;;;22.10;99.90;;;;;;5012525;28;20707;-79
2023/08/20 06:55:34;;;;;;;37.35;26.77;;;22.10;99.90;;;;;;5025523;28;20196;-78
2023/08/20 06:58:02;;;;;;;40.83;29.88;;;22.30;99.90;;;;;;5005577;28;20206;-78
2023/08/20 07:00:29;;;;;;;46.10;34.33;;;22.30;99.90;;;;;;5030559;28;20207;-79
2023/08/20 07:02:57;;;;;;;41.78;32.08;;;22.10;99.90;;;;;;5007186;28;20685;-77
2023/08/20 07:05:24;;;;;;;44.85;31.65;;;22.10;99.90;;;;;;5012061;28;20210;-77
2023/08/20 07:07:52;;;;;;;45.17;33.05;;;22.20;99.90;;;;;;5017663;28;20199;-77
2023/08/20 07:10:19;;;;;;;43.08;31.73;;;22.20;99.90;;;;;;5053005;28;20197;-77
2023/08/20 07:12:48;;;;;;;46.10;35.58;;;22.10;99.90;;;;;;5024746;28;20199;-77
2023/08/20 07:15:16;;;;;;;43.63;33.20;;;22.00;99.90;;;;;;5033265;28;20194;-77
2023/08/20 07:17:44;;;;;;;46.58;34.28;;;22.00;99.90;;;;;;5017920;28;20203;-77
2023/08/20 07:20:12;;;;;;;39.70;30.42;;;22.00;99.90;;;;;;5011856;28;20693;-77
2023/08/20 07:22:39;;;;;;;43.40;32.70;;;22.20;99.90;;;;;;5012352;28;20200;-77
2023/08/20 07:25:07;;;;;;;38.55;29.88;;;22.30;99.90;;;;;;5030208;28;20210;-77
2023/08/20 07:27:35;;;;;;;42.63;31.80;;;22.30;99.90;;;;;;5032209;28;20546;-78
2023/08/20 07:30:04;;;;;;;44.28;33.72;;;22.30;99.90;;;;;;5014284;28;20567;-78
2023/08/20 07:32:31;;;;;;;40.53;31.33;;;22.30;99.90;;;;;;5022827;28;20695;-78
2023/08/20 07:34:58;;;;;;;42.45;32.88;;;22.40;99.90;;;;;;5026106;28;20206;-77
2023/08/20 07:37:26;;;;;;;40.75;31.13;;;22.60;99.90;;;;;;5014206;28;20195;-78
2023/08/20 07:39:54;;;;;;;37.08;28.88;;;22.80;99.90;;;;;;5026876;28;20222;-78
2023/08/20 07:42:21;;;;;;;46.70;32.92;;;22.90;99.90;;;;;;5015588;28;20211;-78
2023/08/20 07:44:48;;;;;;;42.70;31.67;;;22.80;99.90;;;;;;5026496;28;20223;-78
2023/08/20 07:47:17;;;;;;;43.72;32.58;;;22.90;99.90;;;;;;5016822;28;20207;-78
2023/08/20 07:49:45;;;;;;;43.17;33.50;;;22.90;99.90;;;;;;5014656;28;20195;-78
2023/08/20 07:52:12;;;;;;;38.65;29.95;;;22.90;99.90;;;;;;5032300;28;20187;-77
2023/08/20 07:54:39;;;;;;;42.67;31.73;;;22.90;99.90;;;;;;5020584;28;20219;-78
2023/08/20 07:57:07;;;;;;;42.35;31.35;;;23.00;99.90;;;;;;5016638;28;20223;-78
2023/08/20 07:59:34;;;;;;;38.95;30.55;;;22.90;99.90;;;;;;5039148;28;20588;-78
2023/08/20 08:02:02;;;;;;;36.67;29.13;;;23.10;99.90;;;;;;5028443;28;20203;-77
2023/08/20 08:04:31;;;;;;;37.22;29.00;;;23.10;99.90;;;;;;5030818;28;20223;-77
2023/08/20 08:06:58;;;;;;;34.22;27.35;;;23.30;99.90;;;;;;5018406;28;20680;-77
2023/08/20 08:09:36;;;;;;;37.72;28.92;;;23.30;99.90;;;;;;5011321;28;20214;-78
2023/08/20 08:12:05;;;;;;;36.00;27.88;;;23.30;99.90;;;;;;5026916;28;20211;-78
2023/08/20 08:14:33;;;;;;;33.83;28.25;;;23.30;99.90;;;;;;5023666;28;20214;-77
2023/08/20 08:17:00;;;;;;;33.53;27.92;;;23.30;99.90;;;;;;5018266;28;20195;-78
2023/08/20 08:19:27;;;;;;;33.53;26.65;;;23.40;99.90;;;;;;5021663;28;20760;-78
2023/08/20 08:21:57;;;;;;;34.83;28.55;;;23.50;99.90;;;;;;5010604;28;20206;-78
2023/08/20 08:24:27;;;;;;;34.65;26.60;;;23.60;99.90;;;;;;5027575;28;20681;-78
2023/08/20 08:26:55;;;;;;;35.05;27.65;;;23.80;99.90;;;;;;5010202;28;20207;-78
2023/08/20 08:29:40;;;;;;;33.35;25.60;;;23.80;99.90;;;;;;5031198;28;20198;-78
2023/08/20 08:32:08;;;;;;;30.35;25.10;;;23.90;99.90;;;;;;5029521;28;20522;-78
2023/08/20 08:34:38;;;;;;;30.92;24.63;;;24.00;99.90;;;;;;5011421;28;20223;-79
2023/08/20 08:38:00;;;;;;;30.13;24.52;;;24.10;99.90;;;;;;5020540;28;20691;-78
2023/08/20 08:40:30;;;;;;;32.70;25.00;;;24.10;99.90;;;;;;5029388;28;20207;-78
2023/08/20 08:42:58;;;;;;;32.83;25.38;;;24.10;99.90;;;;;;5039469;28;20233;-79
2023/08/20 08:45:27;;;;;;;28.80;24.52;;;24.20;99.90;;;;;;5004245;28;20203;-79
2023/08/20 08:47:55;;;;;;;25.92;21.08;;;24.30;99.90;;;;;;5027558;28;20198;-79
2023/08/20 08:50:23;;;;;;;26.63;22.48;;;24.40;99.90;;;;;;5013728;28;20203;-79
2023/08/20 08:52:54;;;;;;;27.30;22.55;;;24.40;99.90;;;;;;5014996;28;20230;-79
2023/08/20 08:55:22;;;;;;;25.50;20.42;;;24.50;99.90;;;;;;5033197;28;20649;-78
2023/08/20 08:57:51;;;;;;;23.77;19.77;;;24.60;99.90;;;;;;5018574;28;20210;-78
2023/08/20 09:00:53;;;;;;;22.48;19.42;;;24.50;99.90;;;;;;5032275;28;20203;-79
2023/08/20 09:03:44;;;;;;;19.80;17.70;;;24.60;99.90;;;;;;5018172;28;20207;-78
2023/08/20 09:06:27;;;;;;;15.30;13.43;;;24.80;99.90;;;;;;5035547;28;20194;-78
2023/08/20 09:09:06;;;;;;;15.70;12.68;;;24.90;99.90;;;;;;5023886;28;20203;-78
2023/08/20 09:11:50;;;;;;;14.77;11.57;;;24.90;99.90;;;;;;5018511;28;20210;-78
2023/08/20 09:14:31;;;;;;;13.70;12.27;;;25.00;99.90;;;;;;5017566;28;20227;-79
2023/08/20 09:17:17;;;;;;;10.00;9.00;;;25.10;99.90;;;;;;5027938;28;20210;-79
2023/08/20 09:19:47;;;;;;;9.38;8.50;;;25.10;99.90;;;;;;5008469;28;20210;-79
2023/08/20 09:22:15;;;;;;;9.45;8.35;;;25.10;99.90;;;;;;5035079;28;20222;-79
2023/08/20 09:24:45;;;;;;;10.30;9.30;;;25.00;99.90;;;;;;5017483;28;20222;-79
2023/08/20 09:27:20;;;;;;;11.10;9.65;;;25.00;99.90;;;;;;5016952;28;20199;-79
2023/08/20 09:30:07;;;;;;;11.48;10.27;;;25.10;99.90;;;;;;5013750;28;20199;-79
2023/08/20 09:32:34;;;;;;;14.20;9.88;;;25.20;99.90;;;;;;5030812;28;20203;-79
2023/08/20 09:35:02;;;;;;;11.90;9.85;;;25.30;99.90;;;;;;5014808;28;20204;-79
2023/08/20 09:41:18;;;;;;;12.05;9.75;;;25.50;99.90;;;;;;5041040;28;20202;-79
2023/08/20 09:43:47;;;;;;;9.68;8.52;;;25.30;99.90;;;;;;5034000;28;20228;-78
2023/08/20 09:46:20;;;;;;;9.82;8.82;;;25.20;99.90;;;;;;5016862;28;20198;-78
2023/08/20 09:48:49;;;;;;;10.25;9.25;;;25.20;99.90;;;;;;5039121;28;20209;-78
2023/08/20 09:51:19;;;;;;;9.40;8.18;;;25.20;99.90;;;;;;5021382;28;20195;-78
2023/08/20 09:53:51;;;;;;;9.65;8.75;;;25.20;99.90;;;;;;5025954;28;20226;-78
2023/08/20 09:56:28;;;;;;;9.05;8.18;;;25.10;99.90;;;;;;5015397;28;20288;-78
2023/08/20 09:58:56;;;;;;;10.45;9.43;;;25.30;99.90;;;;;;5021300;28;20219;-78
2023/08/20 10:01:26;;;;;;;10.98;9.68;;;25.40;99.90;;;;;;5010275;28;20226;-78
2023/08/20 10:03:54;;;;;;;9.80;8.82;;;25.30;99.90;;;;;;5015957;28;20234;-79
2023/08/20 10:06:22;;;;;;;10.05;8.60;;;25.20;99.90;;;;;;5012875;28;20207;-78
2023/08/20 10:08:52;;;;;;;9.60;8.70;;;25.20;99.90;;;;;;5014530;28;20669;-78
2023/08/20 10:11:20;;;;;;;9.25;8.43;;;25.30;99.90;;;;;;5013270;28;20202;-78
2023/08/20 10:13:47;;;;;;;9.98;9.00;;;25.40;99.90;;;;;;5030046;28;20696;-78
2023/08/20 10:16:19;;;;;;;12.30;10.52;;;25.50;99.90;;;;;;5014403;28;20225;-78
2023/08/20 10:18:48;;;;;;;11.73;10.60;;;25.60;99.90;;;;;;5014707;28;20195;-78
2023/08/20 10:21:15;;;;;;;11.68;10.48;;;25.80;99.90;;;;;;5031549;28;20229;-78
2023/08/20 10:23:49;;;;;;;9.77;8.88;;;26.20;99.90;;;;;;5016850;28;20269;-78
2023/08/20 10:26:16;;;;;;;10.40;9.38;;;26.30;99.90;;;;;;5033042;28;20194;-79
2023/08/20 10:28:44;;;;;;;10.65;9.40;;;26.50;99.90;;;;;;5031678;28;20202;-78
2023/08/20 10:31:12;;;;;;;11.45;10.30;;;26.50;99.90;;;;;;5011244;28;20553;-78
2023/08/20 10:33:50;;;;;;;10.90;9.73;;;26.10;99.90;;;;;;5016440;28;20231;-79
2023/08/20 10:36:22;;;;;;;10.35;9.35;;;26.00;99.90;;;;;;5023559;28;20211;-78
2023/08/20 10:38:50;;;;;;;12.48;10.35;;;25.90;99.90;;;;;;5013551;28;20207;-78
2023/08/20 10:41:25;;;;;;;10.77;9.85;;;25.70;99.90;;;;;;5029811;28;20211;-79
2023/08/20 10:43:53;;;;;;;13.60;10.73;;;25.60;99.90;;;;;;5026716;28;20215;-79
2023/08/20 10:46:21;;;;;;;11.55;10.40;;;25.60;99.90;;;;;;5027716;28;20202;-79
2023/08/20 10:48:52;;;;;;;13.57;12.05;;;25.50;99.90;;;;;;5012683;28;20203;-79
2023/08/20 10:51:20;;;;;;;12.00;10.98;;;25.50;99.90;;;;;;5029526;28;20223;-78
2023/08/20 10:54:05;;;;;;;12.40;11.20;;;25.70;99.90;;;;;;5015752;28;20219;-75
2023/08/20 10:56:43;;;;;;;12.25;11.15;;;25.90;99.90;;;;;;5016459;28;20199;-78
2023/08/20 10:59:15;;;;;;;12.23;11.05;;;26.10;99.90;;;;;;5015144;28;20202;-77
2023/08/20 11:01:45;;;;;;;13.07;10.55;;;26.00;99.90;;;;;;5020957;28;20206;-77
2023/08/20 11:04:26;;;;;;;18.08;14.73;;;26.30;99.90;;;;;;5006437;28;20709;-77
2023/08/20 11:06:55;;;;;;;16.33;14.63;;;26.20;99.90;;;;;;5027073;28;20203;-78
2023/08/20 11:09:24;;;;;;;18.17;16.42;;;26.10;99.90;;;;;;5025497;28;20200;-80
2023/08/20 11:12:17;;;;;;;18.70;16.80;;;25.80;99.90;;;;;;5015449;28;20555;-78
2023/08/20 11:14:45;;;;;;;19.70;17.73;;;25.80;99.90;;;;;;5016386;28;20223;-78
2023/08/20 11:17:14;;;;;;;18.30;16.50;;;25.90;99.90;;;;;;5013718;28;20214;-79
2023/08/20 11:19:43;;;;;;;19.67;17.73;;;25.90;99.90;;;;;;5014251;28;20206;-79
2023/08/20 11:22:37;;;;;;;16.90;15.27;;;25.90;99.90;;;;;;5023823;28;20222;-79
2023/08/20 11:25:06;;;;;;;20.90;18.75;;;26.20;99.90;;;;;;5027548;28;20199;-79
2023/08/20 11:27:34;;;;;;;18.98;17.10;;;26.10;99.90;;;;;;5013218;28;20222;-79
2023/08/20 11:30:04;;;;;;;19.83;17.90;;;26.00;99.90;;;;;;5012329;28;20684;-79
2023/08/20 11:32:32;;;;;;;18.45;16.65;;;25.90;99.90;;;;;;5007214;28;20257;-79
2023/08/20 11:35:00;;;;;;;20.02;18.23;;;26.00;99.90;;;;;;5032016;28;20653;-79
2023/08/20 11:37:28;;;;;;;28.77;25.98;;;26.20;99.90;;;;;;5028036;28;20207;-79
2023/08/20 11:39:56;;;;;;;29.23;26.40;;;26.10;99.90;;;;;;5014356;28;20199;-79
2023/08/20 11:42:24;;;;;;;25.77;23.13;;;25.80;99.90;;;;;;5013247;28;20215;-79
2023/08/20 11:44:56;;;;;;;25.10;22.73;;;25.50;99.90;;;;;;5008409;28;20227;-79
2023/08/20 11:47:24;;;;;;;24.42;22.15;;;25.40;99.90;;;;;;5013104;28;20207;-79
2023/08/20 11:50:05;;;;;;;25.88;23.40;;;25.40;99.90;;;;;;5010820;28;20218;-79
2023/08/20 11:52:33;;;;;;;24.38;21.88;;;25.40;99.90;;;;;;5010800;28;20693;-79
2023/08/20 11:55:01;;;;;;;24.95;22.63;;;25.50;99.90;;;;;;5029639;28;20204;-79
2023/08/20 11:57:31;;;;;;;22.75;20.85;;;25.60;99.90;;;;;;5013199;28;20222;-79
2023/08/20 12:00:04;;;;;;;24.05;21.85;;;25.80;99.90;;;;;;5027865;28;20199;-80
2023/08/20 12:02:42;;;;;;;25.75;23.35;;;26.00;99.90;;;;;;5025049;28;20214;-80
2023/08/20 12:05:12;;;;;;;22.58;20.25;;;26.30;99.90;;;;;;5009208;28;20208;-79
2023/08/20 12:07:39;;;;;;;19.08;17.48;;;26.40;99.90;;;;;;5010776;28;20653;-81
2023/08/20 12:10:25;;;;;;;17.23;15.52;;;26.40;99.90;;;;;;5011691;28;20207;-80
2023/08/20 12:12:53;;;;;;;14.68;13.38;;;26.20;99.90;;;;;;5005513;28;20226;-79
2023/08/20 12:15:21;;;;;;;14.57;13.18;;;26.10;99.90;;;;;;5028906;28;20648;-80
2023/08/20 12:17:59;;;;;;;15.20;13.90;;;26.00;99.90;;;;;;5011444;28;20214;-80
2023/08/20 12:20:36;;;;;;;16.88;14.27;;;25.90;99.90;;;;;;5012574;28;20205;-80
2023/08/20 12:23:06;;;;;;;15.60;14.23;;;26.00;99.90;;;;;;5026348;28;20219;-79
2023/08/20 12:25:55;;;;;;;15.07;13.68;;;26.20;99.90;;;;;;5027127;28;20196;-78
2023/08/20 12:28:28;;;;;;;16.42;15.00;;;26.80;99.90;;;;;;5012274;28;20213;-79
2023/08/20 12:30:57;;;;;;;14.85;13.52;;;26.90;99.90;;;;;;5008848;28;20707;-79
2023/08/20 12:33:25;;;;;;;14.60;13.25;;;27.00;99.90;;;;;;5012286;28;20246;-79
2023/08/20 12:35:55;;;;;;;15.07;13.70;;;26.80;99.90;;;;;;5030322;28;20574;-79
2023/08/20 12:38:33;;;;;;;13.88;12.70;;;26.80;99.90;;;;;;5016471;28;20207;-78
2023/08/20 12:41:01;;;;;;;12.80;11.63;;;26.80;99.90;;;;;;5031992;28;20204;-78
2023/08/20 12:43:28;;;;;;;12.88;11.77;;;27.10;99.90;;;;;;5014212;28;20616;-78
2023/08/20 12:45:56;;;;;;;12.48;11.48;;;27.30;99.90;;;;;;5016051;28;20209;-79
2023/08/20 12:48:33;;;;;;;13.32;12.15;;;27.40;99.90;;;;;;5025258;28;20206;-79
2023/08/20 12:51:02;;;;;;;12.13;11.23;;;27.80;99.90;;;;;;5031680;28;20202;-78